Главная страница
METAR-TAF:

METAR-TAF

Аэропорты :

Сундсвалль-Härnösand, Швеция

широта: 62-32N, долгота: 017-27E, высота над уровнем моря: 4 м

Текущие метеонаблюдения

Эта сводка был подготовлена 41 минут назад, в 10:20 UTC
Ветер 8 Узел от северный, изменяющийся между северо-западный и северо-северо-восточный
Температура 4°C
Влажность 44%
Давление 1015 hPa
Видимость 10 км и более
Нет облачности ниже 1500 м, и нет кучево-дождевой облачности

METAR: ESNN 261020Z 36008KT 310V030 CAVOK 04/M07 Q1015

Время: 12:01 (11:01 UTC)

Прогноз

Эта сводка был подготовлена 2 часа и 31 минут назад, в 08:30 UTC
Прогноз действительный с 26-го 09 UTC до 26-го 18 UTC
Ветер 8 Узел от северо-западный
Видимость 10 км и более
Нет облачности ниже 1500 м, и нет кучево-дождевой облачности
Вероятность 40%
С 26-го 11 UTC до 26-го 14 UTC
Видимость: 3000 м
Отдельные облака на высоте 5000 фута, мощно-кучевые.
небольшие ливневые снегопады

TAF: ESNN 260830Z 2609/2618 32008KT CAVOK PROB40 2611/2614 3000 -SHSN SCT050TCU

Метеонаблюдения и прогнозы для более 4000 аэропортов (сводки METAR и TAF).

Имеющиеся станции представлены на карте желтыми и красными точками.

Чтобы увидеть название станции, наведите на нее мышь.

Затем щелкните, чтобы увидеть метеонаблюдения и метеопрогнозы.

Управление картой: чтобы увеличить масштаб, щелкните зеленые кнопки с черным крестиком; чтобы уменьшить масштаб, щелкните зеленую кнопку с тире; для просмотра соседних карт щелкайте зеленые стрелки.


METAR-TAF: